createdAt,value
2018-01-27T00:00:33.710Z,28.15
2018-01-27T00:01:37.032Z,28.67
2018-01-27T00:02:39.548Z,29.00
2018-01-27T00:03:42.833Z,26.60
2018-01-27T00:04:46.121Z,26.45
2018-01-27T00:05:49.449Z,27.08
2018-01-27T00:06:51.984Z,27.08
2018-01-27T00:07:54.509Z,26.35
2018-01-27T00:08:57.038Z,26.25
2018-01-27T00:09:59.576Z,24.58
2018-01-27T00:11:02.884Z,24.73
2018-01-27T00:12:05.397Z,25.85
2018-01-27T00:13:07.924Z,25.05
2018-01-27T00:14:10.447Z,25.05
2018-01-27T00:15:13.733Z,26.77
2018-01-27T00:16:17.065Z,22.98
2018-01-27T00:17:19.589Z,24.48
2018-01-27T00:18:22.905Z,23.65
2018-01-27T00:19:25.484Z,23.55
2018-01-27T00:20:28.769Z,24.08
2018-01-27T00:21:31.333Z,23.08
2018-01-27T00:22:45.809Z,23.52
2018-01-27T00:23:48.354Z,22.40
2018-01-27T00:24:50.911Z,22.42
2018-01-27T00:25:53.437Z,22.50
2018-01-27T00:26:55.984Z,23.58
2018-01-27T00:27:58.510Z,24.20
2018-01-27T00:29:01.029Z,24.33
2018-01-27T00:30:04.326Z,23.80
2018-01-27T00:31:06.892Z,23.70
2018-01-27T00:32:09.416Z,22.85
2018-01-27T00:33:11.924Z,20.15
2018-01-27T00:34:14.433Z,22.45
2018-01-27T00:35:16.956Z,22.52
2018-01-27T00:36:19.516Z,23.33
2018-01-27T00:37:22.079Z,22.67
2018-01-27T00:38:25.360Z,21.55
2018-01-27T00:39:28.790Z,21.83
2018-01-27T00:40:31.304Z,22.10
2018-01-27T00:41:34.643Z,23.73
2018-01-27T00:42:37.161Z,25.45
2018-01-27T00:43:40.444Z,24.83
2018-01-27T00:44:43.729Z,24.75
2018-01-27T00:45:47.006Z,25.17
2018-01-27T00:46:50.417Z,25.45
2018-01-27T00:47:52.937Z,25.70
2018-01-27T00:48:55.451Z,23.98
2018-01-27T00:49:57.974Z,24.80
2018-01-27T00:51:00.580Z,25.05
2018-01-27T00:52:03.162Z,23.38
2018-01-27T00:53:05.694Z,23.83
2018-01-27T00:54:08.984Z,24.55
2018-01-27T00:55:12.264Z,23.55
2018-01-27T00:56:15.548Z,22.83
2018-01-27T00:57:18.867Z,23.40
2018-01-27T00:58:22.076Z,22.55
2018-01-27T00:59:24.822Z,24.90
2018-01-27T01:00:27.349Z,23.90
2018-01-27T01:01:30.736Z,23.20
2018-01-27T01:02:34.050Z,22.35
2018-01-27T01:03:36.568Z,23.42
2018-01-27T01:04:39.093Z,21.33
2018-01-27T01:05:41.604Z,22.02
2018-01-27T01:06:44.925Z,25.33
2018-01-27T01:07:47.444Z,23.30
2018-01-27T01:08:49.973Z,22.30
2018-01-27T01:09:52.495Z,21.40
2018-01-27T01:10:55.784Z,21.20
2018-01-27T01:11:59.109Z,21.23
2018-01-27T01:13:01.639Z,21.12
2018-01-27T01:14:04.197Z,22.50
2018-01-27T01:15:07.476Z,21.23
2018-01-27T01:16:10.768Z,23.05
2018-01-27T01:17:14.061Z,22.25
2018-01-27T01:18:16.584Z,23.95
2018-01-27T01:19:19.124Z,24.67
2018-01-27T01:20:21.771Z,22.20
2018-01-27T01:21:24.290Z,24.40
2018-01-27T01:22:26.804Z,22.85
2018-01-27T01:23:29.378Z,23.05
2018-01-27T01:24:31.933Z,22.52
2018-01-27T01:25:34.480Z,22.95
2018-01-27T01:26:37.761Z,23.02
2018-01-27T01:27:41.049Z,23.23
2018-01-27T01:28:44.334Z,22.55
2018-01-27T01:29:47.655Z,22.85
2018-01-27T01:30:50.177Z,21.90
2018-01-27T01:31:53.463Z,21.98
2018-01-27T01:32:56.754Z,22.52
2018-01-27T01:33:59.286Z,22.90
2018-01-27T01:35:01.840Z,23.42
2018-01-27T01:36:04.364Z,21.95
2018-01-27T01:37:06.889Z,23.40
2018-01-27T01:38:09.502Z,23.12
2018-01-27T01:39:12.020Z,23.23
2018-01-27T01:40:14.587Z,23.08
2018-01-27T01:41:17.102Z,23.65
2018-01-27T01:42:25.229Z,21.77
2018-01-27T01:43:33.504Z,21.27
2018-01-27T01:44:36.016Z,23.30
2018-01-27T01:45:38.578Z,21.25
2018-01-27T01:46:41.101Z,22.85
2018-01-27T01:47:43.620Z,23.77
2018-01-27T01:48:46.142Z,22.70
2018-01-27T01:49:48.660Z,22.50
2018-01-27T01:50:51.988Z,22.77
2018-01-27T01:51:54.500Z,22.27
2018-01-27T01:52:57.024Z,23.55
2018-01-27T01:53:59.548Z,22.75
2018-01-27T01:55:02.826Z,25.00
2018-01-27T01:56:06.142Z,24.80
2018-01-27T01:57:08.660Z,23.90
2018-01-27T01:58:11.216Z,22.67
2018-01-27T01:59:13.734Z,23.98
2018-01-27T02:00:16.259Z,24.58
2018-01-27T02:01:19.586Z,23.87
2018-01-27T02:02:22.136Z,22.83
2018-01-27T02:03:25.422Z,22.60
2018-01-27T02:04:27.968Z,23.30
2018-01-27T02:05:30.485Z,25.05
2018-01-27T02:06:33.007Z,22.45
2018-01-27T02:07:36.332Z,22.87
2018-01-27T02:08:38.844Z,22.33
2018-01-27T02:09:41.361Z,21.42
2018-01-27T02:10:43.908Z,23.25
2018-01-27T02:11:46.431Z,23.40
2018-01-27T02:12:48.984Z,21.65
2018-01-27T02:13:51.505Z,22.15
2018-01-27T02:14:54.027Z,22.40
2018-01-27T02:15:56.573Z,21.23
2018-01-27T02:16:59.088Z,22.15
2018-01-27T02:18:02.377Z,23.45
2018-01-27T02:19:05.658Z,25.45
2018-01-27T02:20:09.070Z,26.08
2018-01-27T02:21:11.588Z,26.58
2018-01-27T02:22:14.102Z,26.60
2018-01-27T02:23:16.624Z,26.23
2018-01-27T02:24:19.144Z,28.42
2018-01-27T02:25:21.701Z,27.10
2018-01-27T02:26:24.252Z,25.60
2018-01-27T02:27:27.685Z,24.87
2018-01-27T02:28:30.200Z,25.35
2018-01-27T02:29:33.490Z,23.30
2018-01-27T02:30:36.042Z,22.50
2018-01-27T02:31:39.332Z,24.37
2018-01-27T02:32:42.652Z,23.48
2018-01-27T02:33:45.198Z,22.92
2018-01-27T02:34:47.724Z,25.40
2018-01-27T02:35:50.240Z,23.10
2018-01-27T02:36:52.789Z,22.13
2018-01-27T02:37:55.320Z,23.38
2018-01-27T02:38:57.841Z,22.58
2018-01-27T02:40:00.361Z,21.85
2018-01-27T02:41:02.878Z,21.95
2018-01-27T02:42:05.437Z,23.73
2018-01-27T02:43:07.984Z,23.85
2018-01-27T02:44:10.563Z,26.90
2018-01-27T02:45:13.077Z,22.92
2018-01-27T02:46:15.630Z,24.33
2018-01-27T02:47:18.144Z,23.27
2018-01-27T02:48:21.428Z,24.67
2018-01-27T02:49:23.988Z,23.50
2018-01-27T02:50:27.277Z,23.15
2018-01-27T02:51:30.670Z,23.20
2018-01-27T02:52:33.205Z,22.65
2018-01-27T02:53:35.733Z,22.17
2018-01-27T02:54:38.306Z,24.30
2018-01-27T02:55:40.827Z,22.02
2018-01-27T02:56:44.113Z,22.17
2018-01-27T02:57:47.401Z,21.83
2018-01-27T02:58:49.966Z,21.42
2018-01-27T02:59:53.248Z,21.98
2018-01-27T03:00:56.529Z,21.23
2018-01-27T03:01:59.808Z,23.02
2018-01-27T03:03:03.100Z,20.73
2018-01-27T03:04:05.661Z,20.60
2018-01-27T03:05:08.945Z,20.20
2018-01-27T03:06:12.233Z,20.75
2018-01-27T03:07:14.753Z,21.73
2018-01-27T03:08:17.278Z,21.40
2018-01-27T03:09:19.836Z,20.98
2018-01-27T03:10:22.371Z,20.75
2018-01-27T03:11:24.897Z,20.42
2018-01-27T03:12:27.416Z,23.15
2018-01-27T03:13:29.966Z,22.15
2018-01-27T03:14:32.537Z,20.70
2018-01-27T03:15:35.056Z,21.90
2018-01-27T03:16:37.595Z,21.58
2018-01-27T03:17:40.880Z,20.65
2018-01-27T03:18:43.399Z,21.33
2018-01-27T03:19:45.954Z,21.12
2018-01-27T03:20:48.469Z,21.42
2018-01-27T03:21:51.748Z,22.10
2018-01-27T03:22:55.032Z,20.70
2018-01-27T03:23:58.360Z,21.60
2018-01-27T03:25:00.876Z,22.52
2018-01-27T03:26:04.157Z,21.62
2018-01-27T03:27:07.488Z,24.08
2018-01-27T03:28:10.006Z,23.40
2018-01-27T03:29:12.519Z,22.23
2018-01-27T03:30:15.045Z,24.30
2018-01-27T03:31:18.341Z,24.02
2018-01-27T03:32:21.663Z,22.42
2018-01-27T03:33:24.184Z,24.00
2018-01-27T03:34:27.465Z,22.92
2018-01-27T03:35:30.765Z,24.12
2018-01-27T03:36:33.346Z,21.00
2018-01-27T03:37:35.856Z,23.85
2018-01-27T03:38:38.373Z,22.40
2018-01-27T03:39:40.940Z,22.37
2018-01-27T03:40:43.456Z,23.50
2018-01-27T03:41:46.001Z,22.95
2018-01-27T03:42:48.512Z,23.65
2018-01-27T03:43:51.801Z,23.55
2018-01-27T03:44:55.134Z,23.62
2018-01-27T03:45:57.652Z,23.62
2018-01-27T03:47:00.945Z,22.35
2018-01-27T03:48:03.488Z,23.35
2018-01-27T03:49:06.778Z,24.10
2018-01-27T03:50:10.099Z,22.70
2018-01-27T03:51:12.625Z,23.75
2018-01-27T03:52:15.912Z,22.80
2018-01-27T03:53:19.188Z,23.08
2018-01-27T03:54:21.696Z,24.02
2018-01-27T03:55:24.265Z,23.73
2018-01-27T03:56:26.781Z,24.23
2018-01-27T03:57:29.300Z,23.15
2018-01-27T03:58:31.844Z,23.90
2018-01-27T03:59:35.134Z,22.60
2018-01-27T04:00:37.689Z,21.45
2018-01-27T04:01:40.210Z,23.48
2018-01-27T04:02:42.723Z,22.48
2018-01-27T04:03:45.241Z,21.77
2018-01-27T04:04:47.762Z,22.42
2018-01-27T04:05:50.320Z,20.67
2018-01-27T04:06:52.876Z,20.62
2018-01-27T04:07:56.161Z,20.02
2018-01-27T04:08:59.447Z,19.90
2018-01-27T04:10:02.734Z,22.20
2018-01-27T04:11:05.258Z,21.58
2018-01-27T04:12:07.813Z,24.87
2018-01-27T04:13:10.332Z,21.60
2018-01-27T04:14:12.857Z,23.15
2018-01-27T04:15:15.480Z,23.83
2018-01-27T04:16:18.026Z,22.35
2018-01-27T04:17:21.351Z,24.40
2018-01-27T04:18:23.866Z,23.27
2018-01-27T04:19:27.153Z,23.08
2018-01-27T04:20:30.435Z,23.60
2018-01-27T04:21:33.729Z,25.75
2018-01-27T04:22:37.052Z,25.75
2018-01-27T04:23:39.575Z,24.83
2018-01-27T04:24:42.860Z,25.55
2018-01-27T04:25:46.149Z,22.48
2018-01-27T04:26:49.472Z,22.55
2018-01-27T04:27:52.005Z,24.58
2018-01-27T04:28:54.582Z,22.95
2018-01-27T04:29:57.102Z,23.95
2018-01-27T04:30:59.620Z,23.80
2018-01-27T04:32:02.177Z,24.10
2018-01-27T04:33:04.693Z,24.27
2018-01-27T04:34:07.237Z,24.20
2018-01-27T04:35:09.762Z,23.58
2018-01-27T04:36:13.043Z,24.33
2018-01-27T04:37:16.374Z,24.30
2018-01-27T04:38:18.890Z,25.25
2018-01-27T04:39:22.188Z,24.30
2018-01-27T04:40:24.736Z,26.45
2018-01-27T04:41:28.025Z,24.92
2018-01-27T04:42:31.312Z,26.27
2018-01-27T04:43:35.023Z,25.62
2018-01-27T04:44:37.572Z,26.30
2018-01-27T04:45:40.975Z,28.05
2018-01-27T04:46:43.489Z,27.98
2018-01-27T04:47:46.014Z,29.27
2018-01-27T04:48:48.534Z,27.40
2018-01-27T04:49:51.092Z,27.05
2018-01-27T04:50:53.604Z,26.27
2018-01-27T04:51:56.130Z,28.00
2018-01-27T04:52:58.648Z,25.52
2018-01-27T04:54:01.160Z,25.90
2018-01-27T04:55:03.769Z,25.60
2018-01-27T04:56:06.284Z,24.15
2018-01-27T04:57:08.806Z,25.80
2018-01-27T04:58:11.329Z,26.58
2018-01-27T04:59:14.646Z,24.15
2018-01-27T05:00:17.194Z,24.85
2018-01-27T05:01:20.479Z,25.23
2018-01-27T05:02:23.764Z,22.17
2018-01-27T05:03:27.068Z,21.40
2018-01-27T05:04:29.585Z,22.65
2018-01-27T05:05:32.140Z,22.05
2018-01-27T05:06:34.655Z,21.48
2018-01-27T05:07:37.309Z,22.75
2018-01-27T05:08:40.593Z,23.87
2018-01-27T05:09:43.882Z,23.77
2018-01-27T05:10:47.199Z,22.87
2018-01-27T05:11:49.749Z,24.12
2018-01-27T05:12:52.264Z,24.80
2018-01-27T05:13:54.790Z,21.95
2018-01-27T05:14:57.313Z,22.42
2018-01-27T05:15:59.893Z,25.48
2018-01-27T05:17:03.189Z,24.05
2018-01-27T05:18:05.708Z,27.08
2018-01-27T05:19:08.236Z,26.70
2018-01-27T05:20:10.751Z,25.15
2018-01-27T05:21:13.321Z,24.42
2018-01-27T05:22:15.844Z,25.12
2018-01-27T05:23:18.358Z,25.35
2018-01-27T05:24:20.879Z,25.45
2018-01-27T05:25:23.396Z,23.45
2018-01-27T05:26:26.712Z,21.30
2018-01-27T05:27:29.237Z,20.80
2018-01-27T05:28:31.758Z,23.42
2018-01-27T05:29:34.276Z,22.08
2018-01-27T05:30:36.788Z,21.15
2018-01-27T05:31:39.332Z,21.70
2018-01-27T05:32:41.853Z,22.75
2018-01-27T05:33:44.373Z,22.25
2018-01-27T05:34:46.939Z,22.35
2018-01-27T05:35:49.461Z,20.02
2018-01-27T05:36:52.021Z,22.02
2018-01-27T05:37:54.580Z,22.77
2018-01-27T05:38:57.207Z,20.02
2018-01-27T05:39:59.730Z,22.40
2018-01-27T05:41:02.253Z,19.90
2018-01-27T05:42:04.773Z,23.45
2018-01-27T05:43:08.092Z,20.92
2018-01-27T05:44:10.614Z,20.88
2018-01-27T05:45:13.134Z,21.02
2018-01-27T05:46:15.657Z,21.05
2018-01-27T05:47:19.074Z,22.40
2018-01-27T05:48:21.587Z,21.48
2018-01-27T05:49:24.109Z,20.45
2018-01-27T05:50:26.645Z,20.15
2018-01-27T05:51:29.939Z,21.58
2018-01-27T05:52:32.496Z,21.95
2018-01-27T05:53:35.813Z,20.60
2018-01-27T05:54:38.337Z,20.00
2018-01-27T05:55:41.621Z,20.73
2018-01-27T05:56:44.138Z,21.62
2018-01-27T05:57:46.649Z,20.80
2018-01-27T05:58:49.205Z,20.27
2018-01-27T05:59:51.737Z,20.80
2018-01-27T06:00:54.264Z,22.23
2018-01-27T06:01:56.827Z,20.70
2018-01-27T06:03:00.126Z,21.35
2018-01-27T06:04:02.647Z,22.83
2018-01-27T06:05:05.268Z,19.70
2018-01-27T06:06:07.792Z,21.85
2018-01-27T06:07:10.436Z,21.08
2018-01-27T06:08:12.948Z,22.95
2018-01-27T06:09:16.245Z,20.37
2018-01-27T06:10:18.760Z,20.55
2018-01-27T06:11:21.284Z,21.42
2018-01-27T06:12:23.841Z,19.62
2018-01-27T06:13:26.360Z,19.85
2018-01-27T06:14:28.886Z,21.55
2018-01-27T06:15:31.396Z,20.55
2018-01-27T06:16:33.912Z,21.30
2018-01-27T06:17:36.469Z,21.75
2018-01-27T06:18:39.049Z,20.50
2018-01-27T06:19:41.560Z,21.23
2018-01-27T06:20:44.077Z,21.42
2018-01-27T06:21:46.593Z,20.62
2018-01-27T06:22:49.172Z,20.88
2018-01-27T06:23:52.468Z,23.35
2018-01-27T06:24:55.757Z,23.98
2018-01-27T06:25:59.040Z,23.00
2018-01-27T06:27:02.324Z,25.55
2018-01-27T06:28:05.649Z,25.25
2018-01-27T06:29:08.171Z,25.20
2018-01-27T06:30:11.478Z,23.65
2018-01-27T06:31:14.025Z,22.67
2018-01-27T06:32:17.326Z,24.20
2018-01-27T06:33:19.881Z,23.25
2018-01-27T06:34:23.160Z,21.77
2018-01-27T06:35:26.444Z,22.42
2018-01-27T06:36:29.763Z,21.52
2018-01-27T06:37:32.290Z,22.95
2018-01-27T06:38:35.572Z,21.48
2018-01-27T06:39:38.860Z,21.55
2018-01-27T06:40:42.181Z,20.08
2018-01-27T06:41:44.738Z,21.95
2018-01-27T06:42:47.261Z,21.27
2018-01-27T06:43:49.893Z,21.95
2018-01-27T06:44:52.433Z,21.35
2018-01-27T06:45:54.964Z,21.70
2018-01-27T06:46:58.280Z,21.33
2018-01-27T06:48:00.836Z,21.15
2018-01-27T06:49:03.356Z,20.85
2018-01-27T06:50:05.878Z,21.08
2018-01-27T06:51:08.446Z,19.25
2018-01-27T06:52:10.964Z,19.92
2018-01-27T06:53:13.477Z,18.58
2018-01-27T06:54:16.045Z,19.00
2018-01-27T06:55:18.561Z,18.85
2018-01-27T06:56:21.125Z,20.80
2018-01-27T06:57:23.646Z,20.10
2018-01-27T06:58:26.419Z,20.25
2018-01-27T06:59:28.950Z,20.98
2018-01-27T07:00:32.240Z,22.05
2018-01-27T07:01:35.562Z,19.45
2018-01-27T07:02:38.085Z,20.23
2018-01-27T07:03:41.410Z,20.73
2018-01-27T07:04:44.028Z,21.52
2018-01-27T07:05:46.699Z,21.92
2018-01-27T07:06:49.259Z,21.50
2018-01-27T07:07:51.778Z,20.50
2018-01-27T07:08:54.502Z,21.45
2018-01-27T07:09:57.792Z,21.08
2018-01-27T07:11:01.081Z,20.95
2018-01-27T07:12:04.403Z,20.20
2018-01-27T07:13:06.917Z,20.90
2018-01-27T07:14:09.439Z,21.33
2018-01-27T07:15:11.960Z,21.77
2018-01-27T07:16:15.256Z,22.67
2018-01-27T07:17:19.335Z,22.90
2018-01-27T07:18:22.625Z,22.35
2018-01-27T07:19:25.904Z,22.27
2018-01-27T07:20:28.423Z,25.42
2018-01-27T07:21:30.949Z,21.75
2018-01-27T07:22:34.281Z,21.08
2018-01-27T07:23:36.799Z,20.75
2018-01-27T07:24:40.085Z,21.52
2018-01-27T07:25:43.500Z,21.30
2018-01-27T07:26:46.022Z,20.80
2018-01-27T07:27:48.574Z,21.65
2018-01-27T07:28:51.089Z,20.60
2018-01-27T07:29:53.638Z,21.50
2018-01-27T07:30:56.925Z,19.85
2018-01-27T07:32:00.222Z,22.40
2018-01-27T07:33:02.782Z,21.40
2018-01-27T07:34:05.309Z,25.65
2018-01-27T07:35:07.871Z,24.77
2018-01-27T07:36:10.384Z,23.67
2018-01-27T07:37:12.900Z,22.83
2018-01-27T07:38:15.435Z,22.90
2018-01-27T07:39:17.949Z,22.35
2018-01-27T07:40:20.522Z,23.55
2018-01-27T07:41:23.800Z,22.73
2018-01-27T07:42:26.316Z,23.00
2018-01-27T07:43:28.837Z,22.80
2018-01-27T07:44:32.124Z,24.05
2018-01-27T07:45:35.452Z,25.58
2018-01-27T07:46:37.978Z,23.10
2018-01-27T07:47:41.261Z,21.33
2018-01-27T07:48:44.545Z,20.62
2018-01-27T07:49:47.830Z,20.20
2018-01-27T07:50:51.170Z,21.55
2018-01-27T07:51:53.685Z,19.92
2018-01-27T07:52:56.978Z,20.90
2018-01-27T07:53:59.498Z,21.20
2018-01-27T07:55:02.029Z,19.10
2018-01-27T07:56:04.592Z,18.73
2018-01-27T07:57:07.114Z,18.85
2018-01-27T07:58:09.633Z,19.20
2018-01-27T07:59:12.196Z,20.37
2018-01-27T08:00:14.721Z,19.50
2018-01-27T08:01:18.001Z,17.60
2018-01-27T08:02:21.281Z,18.80
2018-01-27T08:03:23.807Z,19.70
2018-01-27T08:04:26.372Z,17.90
2018-01-27T08:05:29.652Z,17.73
2018-01-27T08:06:32.169Z,17.58
2018-01-27T08:07:35.458Z,18.70
2018-01-27T08:08:38.742Z,18.40
2018-01-27T08:09:42.058Z,20.33
2018-01-27T08:10:44.576Z,18.83
2018-01-27T08:11:47.111Z,21.55
2018-01-27T08:12:49.696Z,19.67
2018-01-27T08:13:52.217Z,22.23
2018-01-27T08:14:54.733Z,20.98
2018-01-27T08:15:57.245Z,21.50
2018-01-27T08:16:59.761Z,22.10
2018-01-27T08:18:02.316Z,23.12
2018-01-27T08:19:04.876Z,22.58
2018-01-27T08:20:07.388Z,24.98
2018-01-27T08:21:10.684Z,28.45
2018-01-27T08:22:13.233Z,26.92
2018-01-27T08:23:16.512Z,26.02
2018-01-27T08:24:19.796Z,22.45
2018-01-27T08:25:23.082Z,23.92
2018-01-27T08:26:26.407Z,22.95
2018-01-27T08:27:28.957Z,22.00
2018-01-27T08:28:31.473Z,21.40
2018-01-27T08:29:33.990Z,22.02
2018-01-27T08:30:36.513Z,22.25
2018-01-27T08:31:39.037Z,20.33
2018-01-27T08:32:41.589Z,24.45
2018-01-27T08:33:44.114Z,25.92
2018-01-27T08:34:47.413Z,25.55
2018-01-27T08:35:50.707Z,25.67
2018-01-27T08:36:53.998Z,24.95
2018-01-27T08:37:56.548Z,25.77
2018-01-27T08:38:59.864Z,26.10
2018-01-27T08:40:02.394Z,26.08
2018-01-27T08:41:05.676Z,24.35
2018-01-27T08:42:09.001Z,24.52
2018-01-27T08:43:11.529Z,22.75
2018-01-27T08:44:14.844Z,24.02
2018-01-27T08:45:17.365Z,23.95
2018-01-27T08:46:19.893Z,24.05
2018-01-27T08:47:22.424Z,23.17
2018-01-27T08:48:25.745Z,24.20
2018-01-27T08:49:28.263Z,23.12
2018-01-27T08:50:31.549Z,22.95
2018-01-27T08:51:34.844Z,22.95
2018-01-27T08:52:38.133Z,22.37
2018-01-27T08:53:40.707Z,22.65
2018-01-27T08:54:43.264Z,22.17
2018-01-27T08:55:45.793Z,24.35
2018-01-27T08:56:48.309Z,23.10
2018-01-27T08:57:50.864Z,21.40
2018-01-27T08:58:53.384Z,20.90
2018-01-27T08:59:55.959Z,19.80
2018-01-27T09:00:58.480Z,20.58
2018-01-27T09:02:01.006Z,20.73
2018-01-27T09:03:04.297Z,21.10
2018-01-27T09:04:07.587Z,21.15
2018-01-27T09:05:10.917Z,19.42
2018-01-27T09:06:13.436Z,21.02
2018-01-27T09:07:16.720Z,21.10
2018-01-27T09:08:20.008Z,21.70
2018-01-27T09:09:22.540Z,21.83
2018-01-27T09:10:25.101Z,23.45
2018-01-27T09:11:27.680Z,21.52
2018-01-27T09:12:30.202Z,23.90
2018-01-27T09:13:32.712Z,22.95
2018-01-27T09:14:35.232Z,23.20
2018-01-27T09:15:37.747Z,20.83
2018-01-27T09:16:40.330Z,20.12
2018-01-27T09:17:43.626Z,22.05
2018-01-27T09:18:46.204Z,20.23
2018-01-27T09:19:48.738Z,22.20
2018-01-27T09:20:52.053Z,20.23
2018-01-27T09:21:54.605Z,21.10
2018-01-27T09:22:57.925Z,21.80
2018-01-27T09:24:00.440Z,20.12
2018-01-27T09:25:03.728Z,20.73
2018-01-27T09:26:07.021Z,22.98
2018-01-27T09:27:10.304Z,20.80
2018-01-27T09:28:13.616Z,22.15
2018-01-27T09:29:16.145Z,21.65
2018-01-27T09:30:19.425Z,22.30
2018-01-27T09:31:22.713Z,23.33
2018-01-27T09:32:26.013Z,22.90
2018-01-27T09:33:28.580Z,26.20
2018-01-27T09:34:31.113Z,25.15
2018-01-27T09:35:33.628Z,24.90
2018-01-27T09:36:36.145Z,24.85
2018-01-27T09:37:38.653Z,24.15
2018-01-27T09:38:41.205Z,25.05
2018-01-27T09:39:43.728Z,23.87
2018-01-27T09:40:46.240Z,24.10
2018-01-27T09:41:48.883Z,25.37
2018-01-27T09:42:52.334Z,25.02
2018-01-27T09:43:55.014Z,26.10
2018-01-27T09:44:57.537Z,27.83
2018-01-27T09:46:00.114Z,25.17
2018-01-27T09:47:02.628Z,24.55
2018-01-27T09:48:05.153Z,24.80
2018-01-27T09:49:07.716Z,24.98
2018-01-27T09:50:10.245Z,24.55
2018-01-27T09:51:13.534Z,23.95
2018-01-27T09:52:16.821Z,25.95
2018-01-27T09:53:20.106Z,25.10
2018-01-27T09:54:23.426Z,23.65
2018-01-27T09:55:25.958Z,23.55
2018-01-27T09:56:29.373Z,24.83
2018-01-27T09:57:31.901Z,22.77
2018-01-27T09:58:35.189Z,22.87
2018-01-27T09:59:38.469Z,23.17
2018-01-27T10:00:41.753Z,25.75
2018-01-27T10:01:45.065Z,24.40
2018-01-27T10:02:47.625Z,25.80
2018-01-27T10:03:50.221Z,27.02
2018-01-27T10:04:52.746Z,24.08
2018-01-27T10:05:55.312Z,24.05
2018-01-27T10:06:57.829Z,22.73
2018-01-27T10:08:00.381Z,24.40
2018-01-27T10:09:02.908Z,26.55
2018-01-27T10:10:05.448Z,27.85
2018-01-27T10:11:07.977Z,26.90
2018-01-27T10:12:10.529Z,27.52
2018-01-27T10:13:13.044Z,27.60
2018-01-27T10:14:15.569Z,27.90
2018-01-27T10:15:18.088Z,28.10
2018-01-27T10:16:21.373Z,26.95
2018-01-27T10:17:24.685Z,27.65
2018-01-27T10:18:27.195Z,27.75
2018-01-27T10:19:29.721Z,27.25
2018-01-27T10:20:32.239Z,28.65
2018-01-27T10:21:34.752Z,26.58
2018-01-27T10:22:37.317Z,28.35
2018-01-27T10:23:39.833Z,28.15
2018-01-27T10:24:42.353Z,26.67
2018-01-27T10:25:44.903Z,29.27
2018-01-27T10:26:47.449Z,27.15
2018-01-27T10:27:49.961Z,25.92
2018-01-27T10:28:52.480Z,27.37
2018-01-27T10:29:55.833Z,25.27
2018-01-27T10:30:58.376Z,26.05
2018-01-27T10:32:00.906Z,26.55
2018-01-27T10:33:04.220Z,26.50
2018-01-27T10:34:06.736Z,26.48
2018-01-27T10:35:09.450Z,28.23
2018-01-27T10:36:11.971Z,25.60
2018-01-27T10:37:14.497Z,25.73
2018-01-27T10:38:17.018Z,27.87
2018-01-27T10:39:20.344Z,24.70
2018-01-27T10:40:22.894Z,27.67
2018-01-27T10:41:25.416Z,26.65
2018-01-27T10:42:27.993Z,27.15
2018-01-27T10:43:30.508Z,28.08
2018-01-27T10:44:33.032Z,26.75
2018-01-27T10:45:36.329Z,28.95
2018-01-27T10:46:39.626Z,30.23
2018-01-27T10:47:42.192Z,27.95
2018-01-27T10:48:44.718Z,28.83
2018-01-27T10:49:47.260Z,30.05
2018-01-27T10:50:49.772Z,27.67
2018-01-27T10:51:53.204Z,28.27
2018-01-27T10:52:55.757Z,28.98
2018-01-27T10:53:58.310Z,28.17
2018-01-27T10:55:00.844Z,30.35
2018-01-27T10:56:03.430Z,28.10
2018-01-27T10:57:06.720Z,29.20
2018-01-27T10:58:09.288Z,28.85
2018-01-27T10:59:11.822Z,27.33
2018-01-27T11:00:14.341Z,27.75
2018-01-27T11:01:16.873Z,28.15
2018-01-27T11:02:20.170Z,28.60
2018-01-27T11:03:22.724Z,29.58
2018-01-27T11:04:26.061Z,29.33
2018-01-27T11:05:28.576Z,29.75
2018-01-27T11:06:31.872Z,30.27
2018-01-27T11:07:34.393Z,29.60
2018-01-27T11:08:36.914Z,30.45
2018-01-27T11:09:39.469Z,30.90
2018-01-27T11:10:41.983Z,30.00
2018-01-27T11:11:44.496Z,27.13
2018-01-27T11:12:47.056Z,29.67
2018-01-27T11:13:50.374Z,27.67
2018-01-27T11:14:52.872Z,28.62
2018-01-27T11:15:55.401Z,28.38
2018-01-27T11:16:57.961Z,27.80
2018-01-27T11:18:00.546Z,28.25
2018-01-27T11:19:03.073Z,27.60
2018-01-27T11:20:06.415Z,27.48
2018-01-27T11:21:08.956Z,27.87
2018-01-27T11:22:18.524Z,28.52
2018-01-27T11:23:21.076Z,28.00
2018-01-27T11:24:23.602Z,27.30
2018-01-27T11:25:26.116Z,26.42
2018-01-27T11:26:28.628Z,26.67
2018-01-27T11:27:31.149Z,28.10
2018-01-27T11:28:33.714Z,27.73
2018-01-27T11:29:36.230Z,26.55
2018-01-27T11:31:47.780Z,26.15
2018-01-27T11:32:50.300Z,26.15
2018-01-27T11:33:52.856Z,26.77
2018-01-27T11:34:55.367Z,27.33
2018-01-27T11:35:57.883Z,26.12
2018-01-27T11:37:00.397Z,26.05
2018-01-27T11:38:02.915Z,26.35
2018-01-27T11:39:05.488Z,26.70
2018-01-27T11:40:08.001Z,26.23
2018-01-27T11:41:10.524Z,26.67
2018-01-27T11:42:13.060Z,27.25
2018-01-27T11:43:15.581Z,27.50
2018-01-27T11:44:18.134Z,24.92
2018-01-27T11:45:20.721Z,27.15
2018-01-27T11:46:23.274Z,28.20
2018-01-27T11:47:25.788Z,26.45
2018-01-27T11:48:29.073Z,26.95
2018-01-27T11:49:32.357Z,26.67
2018-01-27T11:50:35.681Z,28.73
2018-01-27T11:51:38.196Z,26.60
2018-01-27T11:52:41.517Z,27.15
2018-01-27T11:53:44.042Z,27.33
2018-01-27T11:54:47.464Z,27.23
2018-01-27T11:55:50.012Z,25.65
2018-01-27T11:56:53.344Z,27.62
2018-01-27T11:57:55.865Z,27.92
2018-01-27T11:58:59.197Z,27.08
2018-01-27T12:00:01.760Z,26.50
2018-01-27T12:01:04.276Z,27.08
2018-01-27T12:02:07.617Z,27.73
2018-01-27T12:03:10.137Z,27.00
2018-01-27T12:04:12.724Z,26.98
2018-01-27T12:05:15.253Z,26.67
2018-01-27T12:06:18.546Z,27.33
2018-01-27T12:07:21.819Z,26.83
2018-01-27T12:08:25.137Z,26.35
2018-01-27T12:09:27.810Z,24.00
2018-01-27T12:10:30.337Z,24.98
2018-01-27T12:11:32.898Z,23.45
2018-01-27T12:12:35.424Z,24.58
2018-01-27T12:13:37.951Z,23.55
2018-01-27T12:14:40.535Z,25.75
2018-01-27T12:15:43.086Z,24.35
2018-01-27T12:16:45.608Z,23.48
2018-01-27T12:17:48.128Z,24.10
2018-01-27T12:18:50.645Z,25.90
2018-01-27T12:19:53.220Z,23.95
2018-01-27T12:20:55.756Z,25.27
2018-01-27T12:21:58.274Z,25.35
2018-01-27T12:23:01.578Z,34.80
2018-01-27T12:24:04.109Z,34.47
2018-01-27T12:25:07.440Z,25.45
2018-01-27T12:26:10.723Z,27.37
2018-01-27T12:27:13.244Z,25.35
2018-01-27T12:28:15.801Z,26.45
2018-01-27T12:29:18.330Z,28.17
2018-01-27T12:30:20.852Z,31.17
2018-01-27T12:31:24.181Z,27.42
2018-01-27T12:32:26.787Z,27.80
2018-01-27T12:33:29.280Z,25.70
2018-01-27T12:34:32.564Z,26.48
2018-01-27T12:35:35.251Z,26.02
2018-01-27T12:36:37.792Z,23.33
2018-01-27T12:37:41.115Z,28.80
2018-01-27T12:38:43.642Z,25.52
2018-01-27T12:39:46.995Z,24.35
2018-01-27T12:40:49.522Z,25.73
2018-01-27T12:41:52.083Z,24.65
2018-01-27T12:42:54.650Z,23.65
2018-01-27T12:43:57.223Z,25.02
2018-01-27T12:44:59.751Z,24.35
2018-01-27T12:46:03.040Z,24.35
2018-01-27T12:47:06.337Z,24.67
2018-01-27T12:49:18.637Z,27.10
2018-01-27T12:50:21.926Z,24.17
2018-01-27T12:51:24.440Z,23.20
2018-01-27T12:52:26.965Z,24.05
2018-01-27T12:53:29.524Z,23.90
2018-01-27T12:54:32.051Z,23.67
2018-01-27T12:55:34.573Z,26.45
2018-01-27T12:56:37.111Z,25.02
2018-01-27T12:57:39.680Z,25.70
2018-01-27T12:58:42.998Z,26.08
2018-01-27T12:59:45.520Z,26.35
2018-01-27T13:00:48.816Z,26.67
2018-01-27T13:01:52.110Z,25.50
2018-01-27T13:02:54.665Z,21.00
2018-01-27T13:03:58.003Z,24.23
2018-01-27T13:05:00.532Z,23.87
2018-01-27T13:06:03.846Z,24.45
2018-01-27T13:07:06.360Z,22.73
2018-01-27T13:08:09.652Z,22.35
2018-01-27T13:09:12.244Z,19.33
2018-01-27T13:10:14.797Z,20.90
2018-01-27T13:11:17.323Z,19.55
2018-01-27T13:12:19.859Z,20.27
2018-01-27T13:13:22.406Z,20.75
2018-01-27T13:14:24.973Z,20.33
2018-01-27T13:15:27.504Z,21.25
2018-01-27T13:16:30.036Z,21.62
2018-01-27T13:17:32.562Z,19.12
2018-01-27T13:18:35.087Z,19.92
2018-01-27T13:19:37.661Z,19.87
2018-01-27T13:20:40.196Z,19.45
2018-01-27T13:21:43.494Z,19.80
2018-01-27T13:22:46.024Z,19.55
2018-01-27T13:23:48.580Z,21.25
2018-01-27T13:24:51.964Z,18.45
2018-01-27T13:25:54.477Z,18.27
2018-01-27T13:26:57.017Z,24.25
2018-01-27T13:27:59.538Z,21.27
2018-01-27T13:29:02.874Z,21.67
2018-01-27T13:30:05.445Z,19.27
2018-01-27T13:31:07.961Z,17.12